createdAt,value
2023-05-22T00:01:15.300Z,17.61
2023-05-22T00:03:42.679Z,17.43
2023-05-22T00:06:11.967Z,17.40
2023-05-22T00:08:39.047Z,17.31
2023-05-22T00:11:06.452Z,17.19
2023-05-22T00:13:33.465Z,17.04
2023-05-22T00:16:00.599Z,16.93
2023-05-22T00:18:28.032Z,16.80
2023-05-22T00:20:55.391Z,16.69
2023-05-22T00:23:22.502Z,16.56
2023-05-22T00:25:50.776Z,16.48
2023-05-22T00:28:17.873Z,16.40
2023-05-22T00:30:45.817Z,16.33
2023-05-22T00:33:13.339Z,16.25
2023-05-22T00:35:40.652Z,16.28
2023-05-22T00:38:08.339Z,16.37
2023-05-22T00:40:36.145Z,16.25
2023-05-22T00:43:08.315Z,16.28
2023-05-22T00:45:36.763Z,16.29
2023-05-22T00:48:04.048Z,16.36
2023-05-22T00:50:31.226Z,16.47
2023-05-22T00:52:58.544Z,16.39
2023-05-22T00:55:25.925Z,16.28
2023-05-22T00:57:53.121Z,16.14
2023-05-22T01:00:21.429Z,16.04
2023-05-22T01:02:48.554Z,16.06
2023-05-22T01:05:18.142Z,16.22
2023-05-22T01:07:46.493Z,16.34
2023-05-22T01:10:13.670Z,16.29
2023-05-22T01:12:44.172Z,16.12
2023-05-22T01:15:31.640Z,16.10
2023-05-22T01:18:01.407Z,16.08
2023-05-22T01:20:36.973Z,16.12
2023-05-22T01:23:04.176Z,16.15
2023-05-22T01:25:47.571Z,16.08
2023-05-22T01:28:39.628Z,16.09
2023-05-22T01:31:14.338Z,16.14
2023-05-22T01:33:49.207Z,16.35
2023-05-22T01:36:22.447Z,16.50
2023-05-22T01:38:50.176Z,16.54
2023-05-22T01:41:19.294Z,16.59
2023-05-22T01:43:48.059Z,16.64
2023-05-22T01:46:15.225Z,16.58
2023-05-22T01:48:42.702Z,16.67
2023-05-22T01:51:18.229Z,16.74
2023-05-22T01:54:18.168Z,16.67
2023-05-22T01:56:52.267Z,16.71
2023-05-22T02:00:02.408Z,16.74
2023-05-22T02:02:32.150Z,16.76
2023-05-22T02:05:03.903Z,16.57
2023-05-22T02:07:34.074Z,16.46
2023-05-22T02:10:03.205Z,16.57
2023-05-22T02:12:31.031Z,16.63
2023-05-22T02:14:58.330Z,16.47
2023-05-22T02:17:27.862Z,16.26
2023-05-22T02:19:55.049Z,16.17
2023-05-22T02:22:22.181Z,16.01
2023-05-22T02:24:50.201Z,15.81
2023-05-22T02:27:17.792Z,15.75
2023-05-22T02:29:44.973Z,15.63
2023-05-22T02:32:12.427Z,15.51
2023-05-22T02:34:39.605Z,15.37
2023-05-22T02:37:06.699Z,15.31
2023-05-22T02:39:34.137Z,15.20
2023-05-22T02:44:29.990Z,15.31
2023-05-22T02:46:57.569Z,15.27
2023-05-22T02:49:24.710Z,15.26
2023-05-22T02:51:51.957Z,15.32
2023-05-22T02:54:19.376Z,15.23
2023-05-22T02:56:46.510Z,15.24
2023-05-22T02:59:13.674Z,15.23
2023-05-22T03:01:41.139Z,15.13
2023-05-22T03:04:08.354Z,14.98
2023-05-22T03:06:37.153Z,15.08
2023-05-22T03:09:04.688Z,15.00
2023-05-22T03:11:32.348Z,15.02
2023-05-22T03:13:59.582Z,15.13
2023-05-22T03:16:27.099Z,15.16
2023-05-22T03:19:09.366Z,15.24
2023-05-22T03:21:37.123Z,15.31
2023-05-22T03:24:05.106Z,15.29
2023-05-22T03:26:33.301Z,15.41
2023-05-22T03:29:01.239Z,15.47
2023-05-22T03:31:33.222Z,15.44
2023-05-22T03:34:02.025Z,15.49
2023-05-22T03:36:32.336Z,15.63
2023-05-22T03:39:00.284Z,15.68
2023-05-22T03:41:27.860Z,15.75
2023-05-22T03:43:55.229Z,15.76
2023-05-22T03:46:23.021Z,15.79
2023-05-22T03:48:50.973Z,15.86
2023-05-22T03:51:19.978Z,15.85
2023-05-22T03:53:47.426Z,15.98
2023-05-22T03:56:14.959Z,16.06
2023-05-22T03:58:42.033Z,16.15
2023-05-22T04:01:10.176Z,16.23
2023-05-22T04:03:37.945Z,16.22
2023-05-22T04:06:05.874Z,16.36
2023-05-22T04:08:33.377Z,16.44
2023-05-22T04:11:00.823Z,16.49
2023-05-22T04:13:28.197Z,16.47
2023-05-22T04:15:56.873Z,16.50
2023-05-22T04:18:24.333Z,16.45
2023-05-22T04:20:51.983Z,16.48
2023-05-22T04:23:19.241Z,16.48
2023-05-22T04:25:48.127Z,16.56
2023-05-22T04:28:17.688Z,16.66
2023-05-22T04:30:46.871Z,16.79
2023-05-22T04:33:14.635Z,17.00
2023-05-22T04:35:42.389Z,17.16
2023-05-22T04:38:09.718Z,17.32
2023-05-22T04:40:38.080Z,17.47
2023-05-22T04:43:05.473Z,17.70
2023-05-22T04:45:32.994Z,17.74
2023-05-22T04:48:02.639Z,17.85
2023-05-22T04:50:32.804Z,17.96
2023-05-22T04:53:00.571Z,18.13
2023-05-22T04:55:27.890Z,18.28
2023-05-22T04:57:56.386Z,18.37
2023-05-22T05:00:26.563Z,18.43
2023-05-22T05:02:53.832Z,18.59
2023-05-22T05:05:21.821Z,18.77
2023-05-22T05:07:50.335Z,18.89
2023-05-22T05:10:18.261Z,18.98
2023-05-22T05:12:45.476Z,19.02
2023-05-22T05:15:12.947Z,19.06
2023-05-22T05:17:40.117Z,19.03
2023-05-22T05:20:08.506Z,19.05
2023-05-22T05:22:37.387Z,19.18
2023-05-22T05:25:05.611Z,19.20
2023-05-22T05:27:33.327Z,19.38
2023-05-22T05:30:01.983Z,19.65
2023-05-22T05:32:30.994Z,19.81
2023-05-22T05:34:58.080Z,19.90
2023-05-22T05:37:26.119Z,19.99
2023-05-22T05:39:54.146Z,20.06
2023-05-22T05:42:21.752Z,20.28
2023-05-22T05:44:49.507Z,20.56
2023-05-22T05:47:17.868Z,21.27
2023-05-22T05:49:44.966Z,22.14
2023-05-22T05:52:12.738Z,23.07
2023-05-22T05:54:46.493Z,23.71
2023-05-22T05:57:15.013Z,23.87
2023-05-22T05:59:42.464Z,23.99
2023-05-22T06:02:09.938Z,24.53
2023-05-22T06:04:37.281Z,24.93
2023-05-22T06:07:05.112Z,24.87
2023-05-22T06:09:33.465Z,24.92
2023-05-22T06:12:02.718Z,24.92
2023-05-22T06:14:30.713Z,25.15
2023-05-22T06:16:59.428Z,25.30
2023-05-22T06:19:26.977Z,25.36
2023-05-22T06:21:54.635Z,25.20
2023-05-22T06:24:22.045Z,24.28
2023-05-22T06:26:50.136Z,23.98
2023-05-22T06:29:17.381Z,24.37
2023-05-22T06:31:45.377Z,24.20
2023-05-22T06:34:13.061Z,24.06
2023-05-22T06:36:40.701Z,24.11
2023-05-22T06:39:08.734Z,24.18
2023-05-22T06:41:38.513Z,24.18
2023-05-22T06:44:07.151Z,24.40
2023-05-22T06:46:38.070Z,24.74
2023-05-22T06:49:06.289Z,24.52
2023-05-22T06:51:34.327Z,24.87
2023-05-22T06:54:04.320Z,24.37
2023-05-22T06:56:31.971Z,24.96
2023-05-22T06:58:59.486Z,25.42
2023-05-22T07:01:29.392Z,25.45
2023-05-22T07:04:00.427Z,25.59
2023-05-22T07:06:28.838Z,26.22
2023-05-22T07:08:56.413Z,26.48
2023-05-22T07:11:24.984Z,26.72
2023-05-22T07:13:52.689Z,26.84
2023-05-22T07:16:19.802Z,26.48
2023-05-22T07:18:47.876Z,26.51
2023-05-22T07:21:15.410Z,27.39
2023-05-22T07:23:43.190Z,28.67
2023-05-22T07:26:10.945Z,28.95
2023-05-22T07:28:39.477Z,28.39
2023-05-22T07:31:07.372Z,27.79
2023-05-22T07:33:34.448Z,27.43
2023-05-22T07:36:02.130Z,27.11
2023-05-22T07:38:29.448Z,26.63
2023-05-22T07:40:56.889Z,26.34
2023-05-22T07:43:25.078Z,25.69
2023-05-22T07:45:54.304Z,25.66
2023-05-22T07:48:23.174Z,25.30
2023-05-22T07:50:50.625Z,25.09
2023-05-22T07:53:18.342Z,24.87
2023-05-22T07:55:45.682Z,25.00
2023-05-22T07:58:14.597Z,25.30
2023-05-22T08:00:42.562Z,25.94
2023-05-22T08:03:10.066Z,26.99
2023-05-22T08:05:37.192Z,27.01
2023-05-22T08:08:04.811Z,26.54
2023-05-22T08:10:46.561Z,26.13
2023-05-22T08:13:19.550Z,25.40
2023-05-22T08:15:46.935Z,25.06
2023-05-22T08:18:14.284Z,24.89
2023-05-22T08:20:41.689Z,24.92
2023-05-22T08:23:09.276Z,24.91
2023-05-22T08:25:36.371Z,24.80
2023-05-22T08:28:03.732Z,25.15
2023-05-22T08:30:31.186Z,25.36
2023-05-22T08:32:58.235Z,25.51
2023-05-22T08:35:25.219Z,25.25
2023-05-22T08:37:53.004Z,23.63
2023-05-22T08:40:21.355Z,24.44
2023-05-22T08:42:51.497Z,25.35
2023-05-22T08:45:19.859Z,25.57
2023-05-22T08:47:53.283Z,25.74
2023-05-22T08:50:21.070Z,26.38
2023-05-22T08:52:51.937Z,26.59
2023-05-22T08:55:19.704Z,27.18
2023-05-22T08:57:47.413Z,27.65
2023-05-22T09:00:15.636Z,28.03
2023-05-22T09:02:42.923Z,28.34
2023-05-22T09:05:10.356Z,28.61
2023-05-22T09:07:39.163Z,28.61
2023-05-22T09:10:07.572Z,28.89
2023-05-22T09:12:35.035Z,29.23
2023-05-22T09:15:10.448Z,28.15
2023-05-22T09:17:41.329Z,28.22
2023-05-22T09:20:10.508Z,28.52
2023-05-22T09:22:38.417Z,28.50
2023-05-22T09:25:06.970Z,28.94
2023-05-22T09:27:34.498Z,29.62
2023-05-22T09:30:01.913Z,30.05
2023-05-22T09:32:32.113Z,30.24
2023-05-22T09:35:04.239Z,30.25
2023-05-22T09:37:36.428Z,30.40
2023-05-22T09:40:07.664Z,30.67
2023-05-22T09:42:35.831Z,30.23
2023-05-22T09:45:07.934Z,30.26
2023-05-22T09:47:35.869Z,29.99
2023-05-22T09:50:06.521Z,29.59
2023-05-22T09:52:35.062Z,29.70
2023-05-22T09:55:05.115Z,29.29
2023-05-22T09:57:33.990Z,28.70
2023-05-22T10:00:04.621Z,28.03
2023-05-22T10:02:43.852Z,28.49
2023-05-22T10:05:12.920Z,28.93
2023-05-22T10:08:05.316Z,29.39
2023-05-22T10:10:34.562Z,30.20
2023-05-22T10:13:03.700Z,28.86
2023-05-22T10:15:31.865Z,29.23
2023-05-22T10:18:00.748Z,30.13
2023-05-22T10:20:29.550Z,29.97
2023-05-22T10:22:57.221Z,29.03
2023-05-22T10:25:25.990Z,28.17
2023-05-22T10:27:54.974Z,28.56
2023-05-22T10:30:40.549Z,28.72
2023-05-22T10:33:12.866Z,28.67
2023-05-22T10:35:51.348Z,29.13
2023-05-22T10:38:37.390Z,29.19
2023-05-22T10:41:04.974Z,29.11
2023-05-22T10:43:32.839Z,29.68
2023-05-22T10:46:04.519Z,28.31
2023-05-22T10:48:39.306Z,29.26
2023-05-22T10:51:08.504Z,29.08
2023-05-22T10:53:36.332Z,29.52
2023-05-22T10:56:14.255Z,28.98
2023-05-22T10:58:44.920Z,28.96
2023-05-22T11:01:20.477Z,28.97
2023-05-22T11:03:50.943Z,29.15
2023-05-22T11:06:31.409Z,29.07
2023-05-22T11:08:59.092Z,29.40
2023-05-22T11:11:27.816Z,29.14
2023-05-22T11:14:16.304Z,29.53
2023-05-22T11:16:43.932Z,29.98
2023-05-22T11:19:22.739Z,29.84
2023-05-22T11:21:50.658Z,29.39
2023-05-22T11:24:18.316Z,29.09
2023-05-22T11:27:01.659Z,28.65
2023-05-22T11:29:30.680Z,28.95
2023-05-22T11:31:59.388Z,29.08
2023-05-22T11:34:26.587Z,28.84
2023-05-22T11:37:00.416Z,28.92
2023-05-22T11:39:27.613Z,29.25
2023-05-22T11:41:55.447Z,29.16
2023-05-22T11:44:22.738Z,27.86
2023-05-22T11:46:50.010Z,27.81
2023-05-22T11:49:17.580Z,28.42
2023-05-22T11:51:45.090Z,27.73
2023-05-22T11:54:12.254Z,27.05
2023-05-22T11:56:39.631Z,27.04
2023-05-22T11:59:07.518Z,27.92
2023-05-22T12:01:36.372Z,28.12
2023-05-22T12:04:04.790Z,28.46
2023-05-22T12:06:33.463Z,28.70
2023-05-22T12:09:01.412Z,28.89
2023-05-22T12:11:28.893Z,29.35
2023-05-22T12:14:04.165Z,29.53
2023-05-22T12:16:36.595Z,29.34
2023-05-22T12:19:11.297Z,29.63
2023-05-22T12:21:39.518Z,29.82
2023-05-22T12:24:06.790Z,29.90
2023-05-22T12:26:33.926Z,29.84
2023-05-22T12:29:01.372Z,29.49
2023-05-22T12:31:28.630Z,29.18
2023-05-22T12:33:56.487Z,28.19
2023-05-22T12:36:40.643Z,28.39
2023-05-22T12:39:17.143Z,28.54
2023-05-22T12:41:47.428Z,28.61
2023-05-22T12:44:16.419Z,28.86
2023-05-22T12:46:43.533Z,28.58
2023-05-22T12:49:11.253Z,28.90
2023-05-22T12:51:38.400Z,29.10
2023-05-22T12:54:05.792Z,28.96
2023-05-22T12:56:33.245Z,28.91
2023-05-22T12:59:00.255Z,28.87
2023-05-22T13:01:27.490Z,29.07
2023-05-22T13:03:54.848Z,29.05
2023-05-22T13:06:22.016Z,28.49
2023-05-22T13:08:49.034Z,28.29
2023-05-22T13:11:16.369Z,28.04
2023-05-22T13:13:43.481Z,27.90
2023-05-22T13:16:11.168Z,27.75
2023-05-22T13:18:38.492Z,27.69
2023-05-22T13:21:06.281Z,27.79
2023-05-22T13:23:33.388Z,27.57
2023-05-22T13:26:02.260Z,27.92
2023-05-22T13:28:29.523Z,27.75
2023-05-22T13:30:56.761Z,27.75
2023-05-22T13:33:25.793Z,27.82
2023-05-22T13:35:52.932Z,27.62
2023-05-22T13:38:20.065Z,27.41
2023-05-22T13:40:48.663Z,27.42
2023-05-22T13:43:16.138Z,27.59
2023-05-22T13:45:43.280Z,27.73
2023-05-22T13:48:11.316Z,27.74
2023-05-22T13:50:38.422Z,27.79
2023-05-22T13:53:05.545Z,27.70
2023-05-22T13:55:32.993Z,27.83
2023-05-22T13:58:00.047Z,28.11
2023-05-22T14:00:27.161Z,28.05
2023-05-22T14:02:54.622Z,27.92
2023-05-22T14:05:21.953Z,28.02
2023-05-22T14:07:49.118Z,27.94
2023-05-22T14:10:16.606Z,27.55
2023-05-22T14:12:43.683Z,27.50
2023-05-22T14:15:11.020Z,27.66
2023-05-22T14:17:38.731Z,27.64
2023-05-22T14:20:07.249Z,27.29
2023-05-22T14:22:38.634Z,27.65
2023-05-22T14:25:12.107Z,27.59
2023-05-22T14:27:39.456Z,27.71
2023-05-22T14:30:13.395Z,27.59
2023-05-22T14:32:41.099Z,27.73
2023-05-22T14:35:08.567Z,27.59
2023-05-22T14:37:36.802Z,27.54
2023-05-22T14:40:04.883Z,27.56
2023-05-22T14:42:32.124Z,27.74
2023-05-22T14:44:59.478Z,27.58
2023-05-22T14:47:27.010Z,27.54
2023-05-22T14:49:57.603Z,27.47
2023-05-22T14:52:30.446Z,27.68
2023-05-22T14:54:57.529Z,27.87
2023-05-22T14:57:24.629Z,28.10
2023-05-22T14:59:52.027Z,28.15
2023-05-22T15:02:19.184Z,28.12
2023-05-22T15:04:46.424Z,28.12
2023-05-22T15:07:13.933Z,28.21
2023-05-22T15:09:41.385Z,28.07
2023-05-22T15:12:08.564Z,28.01
2023-05-22T15:14:35.999Z,27.95
2023-05-22T15:17:03.469Z,27.80
2023-05-22T15:19:30.644Z,27.66
2023-05-22T15:22:05.777Z,27.60
2023-05-22T15:24:44.310Z,27.35
2023-05-22T15:27:12.053Z,26.99
2023-05-22T15:29:39.224Z,26.81
2023-05-22T15:32:06.592Z,26.82
2023-05-22T15:34:34.037Z,26.63
2023-05-22T15:37:01.113Z,26.68
2023-05-22T15:39:28.192Z,26.92
2023-05-22T15:42:05.748Z,27.12
2023-05-22T15:44:33.801Z,27.26
2023-05-22T15:47:01.283Z,27.44
2023-05-22T15:49:31.080Z,27.38
2023-05-22T15:51:58.898Z,27.43
2023-05-22T15:54:26.304Z,27.33
2023-05-22T15:56:53.402Z,27.47
2023-05-22T15:59:20.508Z,27.62
2023-05-22T16:01:47.999Z,27.65
2023-05-22T16:04:15.537Z,27.75
2023-05-22T16:06:42.836Z,27.67
2023-05-22T16:09:10.094Z,27.63
2023-05-22T16:11:37.914Z,27.49
2023-05-22T16:14:05.043Z,27.44
2023-05-22T16:16:32.220Z,27.44
2023-05-22T16:18:59.786Z,27.37
2023-05-22T16:21:26.947Z,27.06
2023-05-22T16:23:54.017Z,27.11
2023-05-22T16:26:21.885Z,26.91
2023-05-22T16:28:49.061Z,26.65
2023-05-22T16:31:19.286Z,26.54
2023-05-22T16:33:47.059Z,26.54
2023-05-22T16:36:14.152Z,26.26
2023-05-22T16:38:41.940Z,25.93
2023-05-22T16:41:09.394Z,25.65
2023-05-22T16:43:37.725Z,25.30
2023-05-22T16:46:07.832Z,24.55
2023-05-22T16:48:38.263Z,24.22
2023-05-22T16:51:05.585Z,23.87
2023-05-22T16:53:32.706Z,23.58
2023-05-22T16:56:00.339Z,23.27
2023-05-22T16:58:27.623Z,22.77
2023-05-22T17:00:54.904Z,22.58
2023-05-22T17:03:22.473Z,22.47
2023-05-22T17:05:49.796Z,22.33
2023-05-22T17:08:17.150Z,22.22
2023-05-22T17:10:44.544Z,22.06
2023-05-22T17:13:19.624Z,21.96
2023-05-22T17:15:51.482Z,21.80
2023-05-22T17:18:22.369Z,21.71
2023-05-22T17:20:51.052Z,21.52
2023-05-22T17:23:18.416Z,21.50
2023-05-22T17:25:48.644Z,21.37
2023-05-22T17:28:16.515Z,21.28
2023-05-22T17:30:45.330Z,21.19
2023-05-22T17:33:12.866Z,21.07
2023-05-22T17:35:40.280Z,20.94
2023-05-22T17:38:08.554Z,20.81
2023-05-22T17:40:43.836Z,20.70
2023-05-22T17:43:12.982Z,20.60
2023-05-22T17:45:40.210Z,20.57
2023-05-22T17:48:07.866Z,20.50
2023-05-22T17:50:35.418Z,20.45
2023-05-22T17:53:03.359Z,20.49
2023-05-22T17:55:30.468Z,20.47
2023-05-22T17:57:58.724Z,20.50
2023-05-22T18:00:25.916Z,20.52
2023-05-22T18:02:53.506Z,20.49
2023-05-22T18:05:20.888Z,20.41
2023-05-22T18:07:48.282Z,20.41
2023-05-22T18:10:15.777Z,20.49
2023-05-22T18:12:42.998Z,20.59
2023-05-22T18:15:12.122Z,20.41
2023-05-22T18:17:41.258Z,20.18
2023-05-22T18:20:12.098Z,19.99
2023-05-22T18:22:39.900Z,19.88
2023-05-22T18:25:07.551Z,19.82
2023-05-22T18:27:36.056Z,19.89
2023-05-22T18:30:05.227Z,19.86
2023-05-22T18:32:32.524Z,19.63
2023-05-22T18:35:02.832Z,19.48
2023-05-22T18:37:30.354Z,19.33
2023-05-22T18:39:57.661Z,19.28
2023-05-22T18:42:24.811Z,19.17
2023-05-22T18:44:52.297Z,19.10
2023-05-22T18:47:19.350Z,18.97
2023-05-22T18:49:46.365Z,18.84
2023-05-22T18:52:13.972Z,18.76
2023-05-22T18:54:41.102Z,18.65
2023-05-22T18:57:08.228Z,18.53
2023-05-22T18:59:37.198Z,18.45
2023-05-22T19:02:04.559Z,18.41
2023-05-22T19:04:31.667Z,18.37
2023-05-22T19:06:59.063Z,18.26
2023-05-22T19:09:26.188Z,18.28
2023-05-22T19:11:53.284Z,18.19
2023-05-22T19:14:20.594Z,18.12
2023-05-22T19:16:47.662Z,18.05
2023-05-22T19:19:14.977Z,17.98
2023-05-22T19:21:42.389Z,17.94
2023-05-22T19:24:09.599Z,17.86
2023-05-22T19:26:36.640Z,17.78
2023-05-22T19:29:04.046Z,17.71
2023-05-22T19:31:31.248Z,17.70
2023-05-22T19:33:58.328Z,17.67
2023-05-22T19:36:25.717Z,17.66
2023-05-22T19:38:53.599Z,17.61
2023-05-22T19:41:23.107Z,17.51
2023-05-22T19:43:51.287Z,17.43
2023-05-22T19:46:18.501Z,17.43
2023-05-22T19:48:45.915Z,17.43
2023-05-22T19:51:13.287Z,17.44
2023-05-22T19:53:41.525Z,17.37
2023-05-22T19:56:08.665Z,17.38
2023-05-22T19:58:35.970Z,17.30
2023-05-22T20:01:03.066Z,17.20
2023-05-22T20:03:30.579Z,17.12
2023-05-22T20:05:57.798Z,17.08
2023-05-22T20:08:25.469Z,17.15
2023-05-22T20:10:53.296Z,17.25
2023-05-22T20:13:20.464Z,17.42
2023-05-22T20:15:51.142Z,17.46
2023-05-22T20:18:18.626Z,17.43
2023-05-22T20:20:45.693Z,17.30
2023-05-22T20:23:12.753Z,17.22
2023-05-22T20:25:40.332Z,17.05
2023-05-22T20:28:07.510Z,16.95
2023-05-22T20:30:34.549Z,16.85
2023-05-22T20:33:01.999Z,16.93
2023-05-22T20:35:30.535Z,16.94
2023-05-22T20:38:04.522Z,16.81
2023-05-22T20:40:34.735Z,16.84
2023-05-22T20:43:04.714Z,17.00
2023-05-22T20:45:32.740Z,16.89
2023-05-22T20:48:00.458Z,16.79
2023-05-22T20:50:27.540Z,16.69
2023-05-22T20:52:54.892Z,16.60
2023-05-22T20:55:21.914Z,16.72
2023-05-22T20:57:48.955Z,16.64
2023-05-22T21:00:16.577Z,16.60
2023-05-22T21:02:43.711Z,16.55
2023-05-22T21:05:11.171Z,16.62
2023-05-22T21:07:38.445Z,16.66
2023-05-22T21:10:05.981Z,16.61
2023-05-22T21:12:33.003Z,16.59
2023-05-22T21:15:00.324Z,16.51
2023-05-22T21:17:27.541Z,16.48
2023-05-22T21:19:54.699Z,16.37
2023-05-22T21:22:21.989Z,16.28
2023-05-22T21:24:49.265Z,16.32
2023-05-22T21:27:16.420Z,16.32
2023-05-22T21:29:43.783Z,16.26
2023-05-22T21:32:10.889Z,16.16
2023-05-22T21:34:37.998Z,16.08
2023-05-22T21:37:05.542Z,16.08
2023-05-22T21:39:32.674Z,16.10
2023-05-22T21:41:59.926Z,16.10
2023-05-22T21:44:27.381Z,16.08
2023-05-22T21:46:55.874Z,16.07
2023-05-22T21:49:23.122Z,16.11
2023-05-22T21:51:50.424Z,16.15
2023-05-22T21:54:17.566Z,16.21
2023-05-22T21:56:44.772Z,16.12
2023-05-22T21:59:12.179Z,16.06
2023-05-22T22:01:39.371Z,16.00
2023-05-22T22:04:06.950Z,15.94
2023-05-22T22:06:34.219Z,15.90
2023-05-22T22:09:03.329Z,15.86
2023-05-22T22:11:30.770Z,15.92
2023-05-22T22:13:57.917Z,15.91
2023-05-22T22:16:25.134Z,15.90
2023-05-22T22:18:52.515Z,15.86
2023-05-22T22:21:19.850Z,15.84
2023-05-22T22:23:46.995Z,15.83
2023-05-22T22:26:14.427Z,15.77
2023-05-22T22:28:41.582Z,15.73
2023-05-22T22:31:08.765Z,15.73
2023-05-22T22:33:36.185Z,15.74
2023-05-22T22:36:03.593Z,15.83
2023-05-22T22:38:32.885Z,15.80
2023-05-22T22:41:00.444Z,15.83
2023-05-22T22:43:27.562Z,15.71
2023-05-22T22:45:55.848Z,15.59
2023-05-22T22:48:23.412Z,15.51
2023-05-22T22:50:52.456Z,15.44
2023-05-22T22:53:19.788Z,15.39
2023-05-22T22:55:49.384Z,15.40
2023-05-22T22:58:18.753Z,15.48
2023-05-22T23:00:45.938Z,15.40
2023-05-22T23:03:13.332Z,15.31
2023-05-22T23:05:40.717Z,15.23
2023-05-22T23:08:08.090Z,15.16
2023-05-22T23:10:35.584Z,15.15
2023-05-22T23:13:02.915Z,15.12
2023-05-22T23:15:30.305Z,15.09
2023-05-22T23:17:57.693Z,15.06
2023-05-22T23:20:24.818Z,15.05
2023-05-22T23:22:52.690Z,15.02
2023-05-22T23:25:20.201Z,14.96
2023-05-22T23:27:47.383Z,14.96
2023-05-22T23:30:14.601Z,15.05
2023-05-22T23:32:42.004Z,14.95
2023-05-22T23:35:10.906Z,14.87
2023-05-22T23:37:38.147Z,14.83
2023-05-22T23:40:06.764Z,14.77
2023-05-22T23:42:35.640Z,14.78
2023-05-22T23:45:04.232Z,14.87
2023-05-22T23:47:31.722Z,14.94
2023-05-22T23:49:59.696Z,14.80
2023-05-22T23:52:27.095Z,14.74
2023-05-22T23:54:54.553Z,14.69
2023-05-22T23:57:21.654Z,14.70
2023-05-22T23:59:48.768Z,14.71
